createdAt,value
2023-11-11T00:02:15.673Z,5.30
2023-11-11T00:04:45.431Z,4.75
2023-11-11T00:07:15.236Z,5.00
2023-11-11T00:09:45.074Z,5.18
2023-11-11T00:12:14.877Z,5.10
2023-11-11T00:14:44.662Z,5.03
2023-11-11T00:17:14.611Z,4.82
2023-11-11T00:19:45.698Z,5.00
2023-11-11T00:22:16.481Z,4.93
2023-11-11T00:24:47.280Z,4.85
2023-11-11T00:27:16.963Z,4.85
2023-11-11T00:29:46.706Z,5.75
2023-11-11T00:32:16.576Z,5.22
2023-11-11T00:34:47.852Z,5.40
2023-11-11T00:37:21.876Z,5.40
2023-11-11T00:39:51.660Z,4.93
2023-11-11T00:42:21.410Z,5.30
2023-11-11T00:44:51.585Z,5.43
2023-11-11T00:47:21.268Z,4.82
2023-11-11T00:49:52.097Z,5.45
2023-11-11T00:52:22.832Z,5.28
2023-11-11T00:54:52.552Z,5.03
2023-11-11T00:57:22.203Z,4.90
2023-11-11T00:59:51.897Z,5.47
2023-11-11T01:02:21.521Z,5.22
2023-11-11T01:04:51.242Z,4.60
2023-11-11T01:07:20.900Z,5.13
2023-11-11T01:09:51.627Z,5.15
2023-11-11T01:12:23.131Z,5.22
2023-11-11T01:14:53.263Z,4.72
2023-11-11T01:17:23.056Z,5.65
2023-11-11T01:19:52.943Z,4.53
2023-11-11T01:22:22.693Z,5.13
2023-11-11T01:24:52.436Z,5.32
2023-11-11T01:27:25.279Z,5.35
2023-11-11T01:29:54.950Z,4.97
2023-11-11T01:32:25.581Z,5.15
2023-11-11T01:34:58.099Z,4.60
2023-11-11T01:37:27.965Z,4.85
2023-11-11T01:39:57.659Z,4.97
2023-11-11T01:42:27.631Z,5.15
2023-11-11T01:44:58.032Z,5.03
2023-11-11T01:47:27.765Z,5.18
2023-11-11T01:49:57.442Z,5.03
2023-11-11T01:52:27.108Z,4.95
2023-11-11T01:54:56.865Z,4.97
2023-11-11T01:57:26.880Z,4.57
2023-11-11T01:59:57.632Z,4.55
2023-11-11T02:02:27.463Z,4.78
2023-11-11T02:04:57.458Z,4.35
2023-11-11T02:07:27.224Z,4.60
2023-11-11T02:09:57.345Z,4.68
2023-11-11T02:12:27.032Z,4.43
2023-11-11T02:14:56.695Z,4.75
2023-11-11T02:17:27.559Z,4.80
2023-11-11T02:19:57.346Z,4.38
2023-11-11T02:22:27.918Z,4.47
2023-11-11T02:25:00.303Z,4.03
2023-11-11T02:27:30.051Z,4.30
2023-11-11T02:29:59.775Z,4.38
2023-11-11T02:32:29.420Z,4.68
2023-11-11T02:34:59.838Z,4.45
2023-11-11T02:37:29.775Z,4.53
2023-11-11T02:40:02.374Z,4.18
2023-11-11T02:42:32.076Z,4.35
2023-11-11T02:45:01.739Z,4.38
2023-11-11T02:47:31.411Z,4.22
2023-11-11T02:50:01.418Z,4.43
2023-11-11T02:52:31.124Z,4.22
2023-11-11T02:55:00.919Z,4.07
2023-11-11T02:57:31.237Z,4.13
2023-11-11T03:00:01.895Z,4.30
2023-11-11T03:02:34.387Z,3.72
2023-11-11T03:05:04.094Z,4.43
2023-11-11T03:07:35.341Z,3.95
2023-11-11T03:10:07.546Z,3.80
2023-11-11T03:12:40.412Z,3.63
2023-11-11T03:15:11.152Z,3.90
2023-11-11T03:17:41.038Z,3.95
2023-11-11T03:20:11.355Z,3.95
2023-11-11T03:22:41.378Z,3.50
2023-11-11T03:25:12.868Z,3.63
2023-11-11T03:27:42.598Z,3.72
2023-11-11T03:30:12.816Z,3.80
2023-11-11T03:32:42.915Z,3.70
2023-11-11T03:35:12.581Z,3.65
2023-11-11T03:37:42.220Z,3.90
2023-11-11T03:40:13.245Z,3.60
2023-11-11T03:42:43.270Z,3.60
2023-11-11T03:45:13.100Z,3.35
2023-11-11T03:47:43.510Z,3.35
2023-11-11T03:50:13.280Z,3.60
2023-11-11T03:52:42.988Z,3.40
2023-11-11T03:55:13.009Z,3.17
2023-11-11T03:57:42.715Z,3.80
2023-11-11T04:00:19.103Z,3.10
2023-11-11T04:02:49.736Z,3.30
2023-11-11T04:05:23.611Z,3.30
2023-11-11T04:07:53.269Z,3.80
2023-11-11T04:10:22.947Z,3.42
2023-11-11T04:12:52.714Z,3.38
2023-11-11T04:15:23.737Z,3.25
2023-11-11T04:17:53.714Z,3.25
2023-11-11T04:20:23.463Z,3.35
2023-11-11T04:22:53.132Z,3.40
2023-11-11T04:25:22.791Z,3.28
2023-11-11T04:27:52.785Z,3.38
2023-11-11T04:30:22.527Z,3.42
2023-11-11T04:32:52.424Z,3.10
2023-11-11T04:35:22.118Z,3.08
2023-11-11T04:37:51.999Z,3.13
2023-11-11T04:40:21.739Z,3.53
2023-11-11T04:42:51.399Z,3.55
2023-11-11T04:45:21.206Z,3.35
2023-11-11T04:47:53.775Z,3.35
2023-11-11T04:50:23.819Z,3.22
2023-11-11T04:52:53.589Z,3.30
2023-11-11T04:55:23.308Z,3.50
2023-11-11T04:57:53.323Z,3.40
2023-11-11T05:00:23.065Z,3.30
2023-11-11T05:02:53.070Z,3.22
2023-11-11T05:05:23.317Z,3.40
2023-11-11T05:07:53.058Z,3.88
2023-11-11T05:10:24.719Z,3.42
2023-11-11T05:12:55.894Z,3.78
2023-11-11T05:15:27.667Z,4.32
2023-11-11T05:18:00.320Z,4.22
2023-11-11T05:20:29.972Z,3.90
2023-11-11T05:23:00.020Z,4.05
2023-11-11T05:25:30.747Z,3.72
2023-11-11T05:28:00.524Z,3.78
2023-11-11T05:30:30.306Z,3.50
2023-11-11T05:33:00.070Z,3.63
2023-11-11T05:35:29.853Z,3.83
2023-11-11T05:38:01.757Z,3.88
2023-11-11T05:40:32.557Z,3.30
2023-11-11T05:43:02.826Z,3.50
2023-11-11T05:45:32.972Z,4.07
2023-11-11T05:48:02.838Z,3.47
2023-11-11T05:50:33.253Z,3.55
2023-11-11T05:53:03.033Z,3.53
2023-11-11T05:55:32.722Z,3.50
2023-11-11T05:58:02.392Z,3.55
2023-11-11T06:00:32.352Z,3.33
2023-11-11T06:03:02.137Z,3.45
2023-11-11T06:05:31.889Z,3.20
2023-11-11T06:08:01.558Z,3.40
2023-11-11T06:10:32.586Z,3.75
2023-11-11T06:13:02.281Z,3.50
2023-11-11T06:15:32.015Z,3.20
2023-11-11T06:18:01.782Z,3.03
2023-11-11T06:20:33.532Z,3.25
2023-11-11T06:25:36.361Z,3.20
2023-11-11T06:28:06.984Z,3.40
2023-11-11T06:30:36.674Z,2.78
2023-11-11T06:33:07.589Z,3.30
2023-11-11T06:35:37.660Z,2.90
2023-11-11T06:38:07.445Z,3.35
2023-11-11T06:40:37.113Z,3.03
2023-11-11T06:43:09.957Z,3.60
2023-11-11T06:45:44.502Z,3.35
2023-11-11T06:48:15.201Z,3.00
2023-11-11T06:50:45.092Z,3.30
2023-11-11T06:53:14.837Z,3.05
2023-11-11T06:55:44.712Z,3.00
2023-11-11T06:58:14.747Z,3.00
2023-11-11T07:00:44.532Z,3.00
2023-11-11T07:03:15.048Z,3.08
2023-11-11T07:05:44.790Z,3.15
2023-11-11T07:08:14.486Z,3.10
2023-11-11T07:10:45.768Z,3.00
2023-11-11T07:13:15.665Z,3.65
2023-11-11T07:15:45.374Z,3.22
2023-11-11T07:18:15.378Z,3.05
2023-11-11T07:20:45.157Z,2.90
2023-11-11T07:23:14.818Z,3.08
2023-11-11T07:25:44.506Z,2.83
2023-11-11T07:28:14.216Z,3.47
2023-11-11T07:30:43.948Z,3.22
2023-11-11T07:33:13.749Z,2.90
2023-11-11T07:35:43.435Z,2.90
2023-11-11T07:38:13.095Z,3.03
2023-11-11T07:40:42.996Z,2.70
2023-11-11T07:43:12.628Z,3.03
2023-11-11T07:45:42.387Z,2.80
2023-11-11T07:48:12.171Z,3.05
2023-11-11T07:50:41.783Z,3.30
2023-11-11T07:53:12.990Z,2.78
2023-11-11T07:55:42.676Z,2.75
2023-11-11T08:00:44.664Z,2.83
2023-11-11T08:03:14.387Z,2.83
2023-11-11T08:05:45.363Z,3.00
2023-11-11T08:08:16.997Z,3.10
2023-11-11T08:10:51.379Z,3.70
2023-11-11T08:13:21.387Z,3.00
2023-11-11T08:15:51.426Z,2.92
2023-11-11T08:18:21.154Z,2.97
2023-11-11T08:20:51.637Z,2.92
2023-11-11T08:23:21.833Z,2.85
2023-11-11T08:25:53.866Z,2.78
2023-11-11T08:28:25.402Z,2.80
2023-11-11T08:30:55.314Z,2.88
2023-11-11T08:33:25.084Z,2.80
2023-11-11T08:35:54.766Z,2.80
2023-11-11T08:38:24.446Z,3.05
2023-11-11T08:40:54.181Z,2.70
2023-11-11T08:43:24.005Z,3.10
2023-11-11T08:45:53.736Z,2.70
2023-11-11T08:48:23.549Z,2.95
2023-11-11T08:50:53.508Z,3.33
2023-11-11T08:53:23.139Z,3.05
2023-11-11T08:55:52.933Z,3.00
2023-11-11T08:58:22.683Z,3.08
2023-11-11T09:00:52.435Z,3.55
2023-11-11T09:03:22.862Z,3.08
2023-11-11T09:05:52.888Z,2.92
2023-11-11T09:08:23.340Z,3.58
2023-11-11T09:10:53.412Z,3.15
2023-11-11T09:13:25.318Z,3.47
2023-11-11T09:15:55.414Z,3.53
2023-11-11T09:18:25.212Z,3.08
2023-11-11T09:20:54.916Z,3.45
2023-11-11T09:23:24.695Z,3.60
2023-11-11T09:25:54.396Z,3.40
2023-11-11T09:28:24.612Z,3.25
2023-11-11T09:30:54.420Z,3.25
2023-11-11T09:33:24.175Z,3.60
2023-11-11T09:35:54.279Z,3.88
2023-11-11T09:38:23.914Z,3.70
2023-11-11T09:40:53.590Z,3.92
2023-11-11T09:43:23.561Z,3.35
2023-11-11T09:45:54.975Z,3.47
2023-11-11T09:48:27.337Z,3.80
2023-11-11T09:50:56.939Z,3.67
2023-11-11T09:53:27.212Z,3.33
2023-11-11T09:55:56.907Z,3.85
2023-11-11T09:58:27.562Z,3.65
2023-11-11T10:00:57.289Z,3.70
2023-11-11T10:03:27.045Z,3.83
2023-11-11T10:05:57.558Z,3.85
2023-11-11T10:08:27.666Z,3.65
2023-11-11T10:10:57.405Z,3.70
2023-11-11T10:13:27.123Z,3.63
2023-11-11T10:16:32.179Z,4.38
2023-11-11T10:19:01.909Z,3.75
2023-11-11T10:21:31.529Z,3.72
2023-11-11T10:24:02.014Z,4.05
2023-11-11T10:26:31.892Z,4.30
2023-11-11T10:29:02.114Z,4.10
2023-11-11T10:31:32.164Z,3.85
2023-11-11T10:34:01.846Z,4.18
2023-11-11T10:36:40.441Z,4.38
2023-11-11T10:39:14.544Z,4.10
2023-11-11T10:41:45.986Z,3.97
2023-11-11T10:44:15.976Z,3.78
2023-11-11T10:46:46.741Z,4.60
2023-11-11T10:49:16.476Z,4.05
2023-11-11T10:51:46.149Z,3.85
2023-11-11T10:54:15.878Z,4.25
2023-11-11T10:56:46.001Z,4.25
2023-11-11T10:59:16.308Z,3.95
2023-11-11T11:01:46.330Z,4.28
2023-11-11T11:04:16.262Z,3.80
2023-11-11T11:07:11.957Z,4.25
2023-11-11T11:10:04.311Z,4.18
2023-11-11T11:12:43.393Z,4.47
2023-11-11T11:15:16.305Z,4.38
2023-11-11T11:17:47.298Z,4.63
2023-11-11T11:20:23.153Z,4.45
2023-11-11T11:22:52.844Z,4.50
2023-11-11T11:25:45.891Z,4.13
2023-11-11T11:28:16.989Z,4.60
2023-11-11T11:31:01.291Z,4.13
2023-11-11T11:33:35.431Z,4.32
2023-11-11T11:36:17.485Z,4.07
2023-11-11T11:38:47.230Z,4.72
2023-11-11T11:41:20.174Z,4.03
2023-11-11T11:43:56.373Z,3.75
2023-11-11T11:46:26.571Z,3.92
2023-11-11T11:48:56.375Z,4.20
2023-11-11T11:51:26.834Z,3.83
2023-11-11T11:53:56.608Z,4.28
2023-11-11T11:56:33.643Z,3.88
2023-11-11T11:59:05.496Z,3.95
2023-11-11T12:01:39.627Z,4.03
2023-11-11T12:04:09.582Z,4.38
2023-11-11T12:06:42.479Z,3.85
2023-11-11T12:09:12.511Z,4.22
2023-11-11T12:11:42.183Z,4.15
2023-11-11T12:14:12.441Z,4.05
2023-11-11T12:16:52.616Z,4.15
2023-11-11T12:19:29.901Z,4.30
2023-11-11T12:22:00.928Z,4.10
2023-11-11T12:24:32.258Z,4.32
2023-11-11T12:27:04.897Z,4.10
2023-11-11T12:29:43.018Z,3.90
2023-11-11T12:32:19.040Z,4.57
2023-11-11T12:34:53.718Z,3.90
2023-11-11T12:37:23.680Z,3.80
2023-11-11T12:39:53.951Z,4.15
2023-11-11T12:42:27.634Z,4.22
2023-11-11T12:44:57.376Z,3.75
2023-11-11T12:47:27.066Z,4.30
2023-11-11T12:49:57.400Z,3.65
2023-11-11T12:52:27.344Z,4.22
2023-11-11T12:54:57.095Z,4.03
2023-11-11T12:57:28.135Z,3.90
2023-11-11T13:00:02.617Z,3.95
2023-11-11T13:02:32.986Z,3.92
2023-11-11T13:05:10.669Z,3.95
2023-11-11T13:07:40.555Z,3.67
2023-11-11T13:10:13.774Z,4.07
2023-11-11T13:12:45.504Z,4.10
2023-11-11T13:15:16.012Z,4.30
2023-11-11T13:17:46.644Z,4.30
2023-11-11T13:20:17.181Z,3.67
2023-11-11T13:22:48.886Z,3.97
2023-11-11T13:25:18.821Z,3.80
2023-11-11T13:27:48.515Z,4.00
2023-11-11T13:30:18.286Z,4.30
2023-11-11T13:32:48.070Z,3.65
2023-11-11T13:35:19.767Z,3.90
2023-11-11T13:37:49.624Z,3.70
2023-11-11T13:40:33.796Z,3.75
2023-11-11T13:43:04.916Z,3.92
2023-11-11T13:45:38.085Z,3.85
2023-11-11T13:48:09.824Z,4.13
2023-11-11T13:50:39.596Z,3.75
2023-11-11T13:53:10.376Z,4.15
2023-11-11T13:55:40.233Z,3.55
2023-11-11T13:58:09.948Z,3.90
2023-11-11T14:00:40.840Z,4.00
2023-11-11T14:03:13.333Z,3.83
2023-11-11T14:05:47.677Z,3.92
2023-11-11T14:08:20.276Z,4.30
2023-11-11T14:10:49.996Z,4.15
2023-11-11T14:13:20.970Z,3.70
2023-11-11T14:15:50.897Z,3.90
2023-11-11T14:18:21.531Z,3.83
2023-11-11T14:20:51.328Z,3.72
2023-11-11T14:23:21.395Z,4.03
2023-11-11T14:25:52.391Z,3.85
2023-11-11T14:28:22.548Z,3.83
2023-11-11T14:30:53.047Z,3.70
2023-11-11T14:33:23.408Z,3.95
2023-11-11T14:35:53.196Z,4.03
2023-11-11T14:38:22.975Z,3.85
2023-11-11T14:40:52.703Z,3.90
2023-11-11T14:43:22.414Z,3.75
2023-11-11T14:45:52.187Z,3.42
2023-11-11T14:48:25.317Z,3.65
2023-11-11T14:50:55.054Z,3.95
2023-11-11T14:53:24.706Z,3.78
2023-11-11T14:55:54.665Z,4.25
2023-11-11T14:58:24.376Z,3.38
2023-11-11T15:00:55.263Z,3.70
2023-11-11T15:03:25.140Z,3.70
2023-11-11T15:05:55.330Z,4.32
2023-11-11T15:08:25.007Z,4.03
2023-11-11T15:10:54.735Z,3.83
2023-11-11T15:13:24.607Z,3.78
2023-11-11T15:15:55.074Z,3.90
2023-11-11T15:18:27.287Z,4.10
2023-11-11T15:20:57.119Z,3.40
2023-11-11T15:23:29.242Z,3.75
2023-11-11T15:26:01.770Z,3.78
2023-11-11T15:28:31.534Z,3.60
2023-11-11T15:31:01.207Z,3.83
2023-11-11T15:33:31.632Z,3.80
2023-11-11T15:36:01.835Z,4.18
2023-11-11T15:38:33.168Z,3.58
2023-11-11T15:41:03.092Z,3.45
2023-11-11T15:43:32.817Z,4.03
2023-11-11T15:46:02.496Z,4.18
2023-11-11T15:48:32.183Z,4.07
2023-11-11T15:51:08.775Z,3.88
2023-11-11T15:53:43.996Z,4.28
2023-11-11T15:56:16.505Z,3.88
2023-11-11T15:58:46.240Z,3.88
2023-11-11T16:01:17.056Z,4.18
2023-11-11T16:03:50.985Z,4.50
2023-11-11T16:06:21.071Z,3.72
2023-11-11T16:08:50.725Z,3.92
2023-11-11T16:11:21.142Z,4.10
2023-11-11T16:13:51.160Z,3.72
2023-11-11T16:16:23.225Z,4.07
2023-11-11T16:18:52.981Z,3.92
2023-11-11T16:21:26.966Z,3.90
2023-11-11T16:24:00.789Z,4.00
2023-11-11T16:26:32.187Z,3.80
2023-11-11T16:29:03.723Z,3.67
2023-11-11T16:31:36.458Z,4.20
2023-11-11T16:34:06.884Z,3.83
2023-11-11T16:36:36.537Z,3.63
2023-11-11T16:39:08.974Z,4.20
2023-11-11T16:41:38.660Z,4.28
2023-11-11T16:44:10.459Z,3.65
2023-11-11T16:46:40.790Z,3.95
2023-11-11T16:49:11.141Z,4.05
2023-11-11T16:51:40.778Z,3.70
2023-11-11T16:54:10.795Z,3.53
2023-11-11T16:56:40.471Z,4.00
2023-11-11T16:59:11.160Z,3.90
2023-11-11T17:01:43.933Z,3.75
2023-11-11T17:04:13.719Z,3.90
2023-11-11T17:06:43.600Z,3.50
2023-11-11T17:09:16.314Z,4.03
2023-11-11T17:11:49.473Z,3.25
2023-11-11T17:14:19.209Z,3.60
2023-11-11T17:16:49.521Z,3.70
2023-11-11T17:19:19.785Z,3.95
2023-11-11T17:21:49.468Z,3.55
2023-11-11T17:24:19.752Z,3.85
2023-11-11T17:26:49.420Z,4.00
2023-11-11T17:29:19.538Z,3.65
2023-11-11T17:31:49.316Z,3.78
2023-11-11T17:34:19.058Z,3.90
2023-11-11T17:36:48.911Z,3.72
2023-11-11T17:39:18.615Z,3.70
2023-11-11T17:41:48.542Z,3.85
2023-11-11T17:44:20.090Z,3.70
2023-11-11T17:46:49.903Z,4.03
2023-11-11T17:49:19.754Z,3.50
2023-11-11T17:51:49.640Z,3.85
2023-11-11T17:54:20.094Z,3.90
2023-11-11T17:56:49.798Z,3.70
2023-11-11T17:59:19.531Z,3.67
2023-11-11T18:01:49.313Z,3.88
2023-11-11T18:04:19.146Z,3.70
2023-11-11T18:06:48.832Z,3.67
2023-11-11T18:09:18.673Z,3.47
2023-11-11T18:11:48.826Z,4.15
2023-11-11T18:14:18.884Z,3.97
2023-11-11T18:16:50.807Z,3.78
2023-11-11T18:19:20.504Z,4.03
2023-11-11T18:21:53.039Z,3.80
2023-11-11T18:24:22.789Z,3.78
2023-11-11T18:26:52.649Z,3.60
2023-11-11T18:29:35.226Z,3.55
2023-11-11T18:32:05.657Z,3.75
2023-11-11T18:34:35.403Z,3.65
2023-11-11T18:37:05.322Z,3.90
2023-11-11T18:39:35.748Z,3.95
2023-11-11T18:42:05.662Z,3.78
2023-11-11T18:44:35.818Z,3.80
2023-11-11T18:47:05.605Z,3.85
2023-11-11T18:49:35.305Z,3.83
2023-11-11T18:52:05.040Z,3.72
2023-11-11T18:54:34.715Z,3.92
2023-11-11T18:57:04.559Z,3.97
2023-11-11T18:59:34.435Z,3.72
2023-11-11T19:02:04.286Z,3.95
2023-11-11T19:04:34.023Z,3.60
2023-11-11T19:07:03.755Z,3.60
2023-11-11T19:09:33.556Z,3.90
2023-11-11T19:12:03.193Z,4.20
2023-11-11T19:14:32.848Z,3.72
2023-11-11T19:17:02.605Z,3.88
2023-11-11T19:19:32.359Z,3.67
2023-11-11T19:22:01.996Z,3.85
2023-11-11T19:24:32.464Z,3.95
2023-11-11T19:27:02.592Z,4.10
2023-11-11T19:29:32.380Z,3.65
2023-11-11T19:32:02.154Z,3.88
2023-11-11T19:34:33.017Z,3.72
2023-11-11T19:37:04.255Z,3.40
2023-11-11T19:39:34.026Z,4.03
2023-11-11T19:42:03.731Z,3.50
2023-11-11T19:44:34.194Z,3.60
2023-11-11T19:47:03.911Z,3.75
2023-11-11T19:49:33.633Z,3.80
2023-11-11T19:52:03.297Z,3.75
2023-11-11T19:54:33.171Z,3.90
2023-11-11T19:57:02.894Z,3.67
2023-11-11T19:59:35.083Z,4.00
2023-11-11T20:02:08.258Z,3.50
2023-11-11T20:04:38.709Z,3.60
2023-11-11T20:07:08.693Z,3.88
2023-11-11T20:09:38.950Z,3.50
2023-11-11T20:12:09.537Z,3.75
2023-11-11T20:14:39.202Z,3.90
2023-11-11T20:17:10.137Z,3.70
2023-11-11T20:19:39.913Z,3.85
2023-11-11T20:22:09.788Z,3.70
2023-11-11T20:24:39.447Z,3.47
2023-11-11T20:27:09.516Z,3.67
2023-11-11T20:29:39.181Z,3.72
2023-11-11T20:32:09.608Z,4.00
2023-11-11T20:34:39.326Z,3.42
2023-11-11T20:37:09.143Z,3.78
2023-11-11T20:39:40.113Z,3.85
2023-11-11T20:42:10.172Z,3.50
2023-11-11T20:44:41.176Z,3.65
2023-11-11T20:47:10.940Z,3.42
2023-11-11T20:49:40.719Z,3.47
2023-11-11T20:52:10.675Z,3.92
2023-11-11T20:54:41.120Z,4.05
2023-11-11T20:57:10.849Z,3.75
2023-11-11T20:59:40.518Z,4.22
2023-11-11T21:02:10.186Z,3.78
2023-11-11T21:04:40.002Z,3.75
2023-11-11T21:07:10.513Z,3.85
2023-11-11T21:09:40.478Z,3.70
2023-11-11T21:12:10.322Z,3.60
2023-11-11T21:14:39.994Z,3.58
2023-11-11T21:17:09.714Z,3.50
2023-11-11T21:19:39.741Z,3.85
2023-11-11T21:22:09.500Z,3.70
2023-11-11T21:24:39.179Z,3.60
2023-11-11T21:27:09.759Z,3.80
2023-11-11T21:29:39.944Z,4.25
2023-11-11T21:32:09.773Z,3.80
2023-11-11T21:34:39.490Z,3.67
2023-11-11T21:37:10.402Z,3.72
2023-11-11T21:39:40.030Z,3.80
2023-11-11T21:42:09.809Z,4.20
2023-11-11T21:44:39.800Z,3.95
2023-11-11T21:47:09.733Z,3.70
2023-11-11T21:49:39.759Z,3.92
2023-11-11T21:52:09.580Z,3.75
2023-11-11T21:54:39.308Z,3.60
2023-11-11T21:57:08.954Z,3.85
2023-11-11T21:59:39.060Z,3.90
2023-11-11T22:02:08.858Z,3.75
2023-11-11T22:04:38.617Z,3.80
2023-11-11T22:07:08.859Z,3.42
2023-11-11T22:09:38.539Z,3.60
2023-11-11T22:12:08.733Z,3.92
2023-11-11T22:14:38.422Z,3.70
2023-11-11T22:17:08.266Z,3.78
2023-11-11T22:19:38.075Z,3.65
2023-11-11T22:22:08.028Z,3.65
2023-11-11T22:24:37.678Z,3.80
2023-11-11T22:27:08.094Z,3.90
2023-11-11T22:29:37.741Z,3.72
2023-11-11T22:32:09.695Z,3.90
2023-11-11T22:34:39.463Z,3.47
2023-11-11T22:37:11.083Z,4.30
2023-11-11T22:39:41.081Z,4.15
2023-11-11T22:42:11.731Z,4.07
2023-11-11T22:44:41.517Z,4.13
2023-11-11T22:47:11.145Z,4.25
2023-11-11T22:49:42.670Z,4.40
2023-11-11T22:52:12.380Z,4.38
2023-11-11T22:54:42.147Z,3.95
2023-11-11T22:57:11.844Z,4.22
2023-11-11T22:59:42.358Z,4.22
2023-11-11T23:02:12.369Z,3.97
2023-11-11T23:04:43.263Z,4.43
2023-11-11T23:07:13.261Z,3.90
2023-11-11T23:09:42.939Z,3.70
2023-11-11T23:12:13.338Z,3.88
2023-11-11T23:14:43.255Z,4.32
2023-11-11T23:17:14.567Z,4.00
2023-11-11T23:19:44.919Z,4.03
2023-11-11T23:22:14.596Z,4.28
2023-11-11T23:24:44.254Z,4.43
2023-11-11T23:27:13.888Z,4.07
2023-11-11T23:29:43.605Z,3.92
2023-11-11T23:32:13.859Z,4.30
2023-11-11T23:34:43.587Z,3.78
2023-11-11T23:37:13.897Z,4.60
2023-11-11T23:39:43.798Z,4.07
2023-11-11T23:42:13.526Z,4.40
2023-11-11T23:44:43.236Z,4.30
2023-11-11T23:47:12.936Z,4.45
2023-11-11T23:49:42.717Z,4.60
2023-11-11T23:52:12.662Z,4.40
2023-11-11T23:54:42.297Z,4.68
2023-11-11T23:57:12.129Z,4.05
2023-11-11T23:59:41.871Z,4.25
